sensor_id;sensor_type;location;lat;lon;timestamp;P1;durP1;ratioP1;P2;durP2;ratioP2
12476;SDS011;6303;51.504;6.300;2023-04-01T00:00:33;0.85;;;0.60;;
12476;SDS011;6303;51.504;6.300;2023-04-01T00:03:00;0.70;;;0.70;;
12476;SDS011;6303;51.504;6.300;2023-04-01T00:05:27;1.38;;;0.80;;
12476;SDS011;6303;51.504;6.300;2023-04-01T00:07:54;1.05;;;0.65;;
12476;SDS011;6303;51.504;6.300;2023-04-01T00:10:21;0.60;;;0.60;;
12476;SDS011;6303;51.504;6.300;2023-04-01T00:12:48;1.00;;;0.60;;
12476;SDS011;6303;51.504;6.300;2023-04-01T00:15:16;0.80;;;0.75;;
12476;SDS011;6303;51.504;6.300;2023-04-01T00:17:44;1.33;;;0.90;;
12476;SDS011;6303;51.504;6.300;2023-04-01T00:20:11;0.63;;;0.63;;
12476;SDS011;6303;51.504;6.300;2023-04-01T00:22:39;0.60;;;0.55;;
12476;SDS011;6303;51.504;6.300;2023-04-01T00:25:07;0.73;;;0.65;;
12476;SDS011;6303;51.504;6.300;2023-04-01T00:27:34;0.82;;;0.65;;
12476;SDS011;6303;51.504;6.300;2023-04-01T00:30:01;0.63;;;0.60;;
12476;SDS011;6303;51.504;6.300;2023-04-01T00:32:29;1.05;;;0.73;;
12476;SDS011;6303;51.504;6.300;2023-04-01T00:34:57;1.00;;;0.63;;
12476;SDS011;6303;51.504;6.300;2023-04-01T00:37:25;0.82;;;0.60;;
12476;SDS011;6303;51.504;6.300;2023-04-01T00:39:53;0.50;;;0.50;;
12476;SDS011;6303;51.504;6.300;2023-04-01T00:42:20;0.47;;;0.45;;
12476;SDS011;6303;51.504;6.300;2023-04-01T00:44:49;0.57;;;0.57;;
12476;SDS011;6303;51.504;6.300;2023-04-01T00:47:18;0.65;;;0.57;;
12476;SDS011;6303;51.504;6.300;2023-04-01T00:49:46;0.63;;;0.60;;
12476;SDS011;6303;51.504;6.300;2023-04-01T00:52:18;1.45;;;0.70;;
12476;SDS011;6303;51.504;6.300;2023-04-01T00:54:49;0.75;;;0.60;;
12476;SDS011;6303;51.504;6.300;2023-04-01T00:57:21;0.68;;;0.68;;
12476;SDS011;6303;51.504;6.300;2023-04-01T00:59:52;0.60;;;0.60;;
12476;SDS011;6303;51.504;6.300;2023-04-01T01:02:21;1.08;;;0.65;;
12476;SDS011;6303;51.504;6.300;2023-04-01T01:04:48;0.60;;;0.50;;
12476;SDS011;6303;51.504;6.300;2023-04-01T01:07:20;0.60;;;0.60;;
12476;SDS011;6303;51.504;6.300;2023-04-01T01:09:55;0.88;;;0.60;;
12476;SDS011;6303;51.504;6.300;2023-04-01T01:12:29;0.73;;;0.70;;
12476;SDS011;6303;51.504;6.300;2023-04-01T01:15:03;0.68;;;0.50;;
12476;SDS011;6303;51.504;6.300;2023-04-01T01:17:39;1.00;;;0.70;;
12476;SDS011;6303;51.504;6.300;2023-04-01T01:20:19;1.10;;;0.80;;
12476;SDS011;6303;51.504;6.300;2023-04-01T01:23:19;0.40;;;0.40;;
12476;SDS011;6303;51.504;6.300;2023-04-01T01:26:12;1.10;;;0.70;;
12476;SDS011;6303;51.504;6.300;2023-04-01T01:29:01;0.75;;;0.60;;
12476;SDS011;6303;51.504;6.300;2023-04-01T01:31:41;0.50;;;0.50;;
12476;SDS011;6303;51.504;6.300;2023-04-01T01:34:15;0.63;;;0.60;;
12476;SDS011;6303;51.504;6.300;2023-04-01T01:36:50;0.50;;;0.50;;
12476;SDS011;6303;51.504;6.300;2023-04-01T01:39:23;0.47;;;0.47;;
12476;SDS011;6303;51.504;6.300;2023-04-01T01:41:56;0.68;;;0.60;;
12476;SDS011;6303;51.504;6.300;2023-04-01T01:44:27;0.60;;;0.60;;
12476;SDS011;6303;51.504;6.300;2023-04-01T01:46:56;1.17;;;0.65;;
12476;SDS011;6303;51.504;6.300;2023-04-01T01:49:24;0.57;;;0.45;;
12476;SDS011;6303;51.504;6.300;2023-04-01T01:51:57;0.50;;;0.50;;
12476;SDS011;6303;51.504;6.300;2023-04-01T01:54:24;0.95;;;0.50;;
12476;SDS011;6303;51.504;6.300;2023-04-01T01:56:52;0.73;;;0.50;;
12476;SDS011;6303;51.504;6.300;2023-04-01T01:59:27;2.13;;;0.57;;
12476;SDS011;6303;51.504;6.300;2023-04-01T02:01:55;0.60;;;0.60;;
12476;SDS011;6303;51.504;6.300;2023-04-01T02:04:24;1.35;;;0.60;;
12476;SDS011;6303;51.504;6.300;2023-04-01T02:06:53;0.50;;;0.50;;
12476;SDS011;6303;51.504;6.300;2023-04-01T02:09:26;1.20;;;0.60;;
12476;SDS011;6303;51.504;6.300;2023-04-01T02:11:56;0.68;;;0.68;;
12476;SDS011;6303;51.504;6.300;2023-04-01T02:14:26;0.47;;;0.47;;
12476;SDS011;6303;51.504;6.300;2023-04-01T02:16:57;0.82;;;0.57;;
12476;SDS011;6303;51.504;6.300;2023-04-01T02:19:32;1.00;;;0.50;;
12476;SDS011;6303;51.504;6.300;2023-04-01T02:22:05;0.65;;;0.63;;
12476;SDS011;6303;51.504;6.300;2023-04-01T02:24:35;0.50;;;0.40;;
12476;SDS011;6303;51.504;6.300;2023-04-01T02:27:05;0.50;;;0.50;;
12476;SDS011;6303;51.504;6.300;2023-04-01T02:29:32;0.88;;;0.50;;
12476;SDS011;6303;51.504;6.300;2023-04-01T02:32:00;0.50;;;0.47;;
12476;SDS011;6303;51.504;6.300;2023-04-01T02:34:28;0.90;;;0.60;;
12476;SDS011;6303;51.504;6.300;2023-04-01T02:36:56;0.85;;;0.50;;
12476;SDS011;6303;51.504;6.300;2023-04-01T02:39:25;0.40;;;0.40;;
12476;SDS011;6303;51.504;6.300;2023-04-01T02:41:52;0.95;;;0.50;;
12476;SDS011;6303;51.504;6.300;2023-04-01T02:44:20;0.68;;;0.40;;
12476;SDS011;6303;51.504;6.300;2023-04-01T02:46:48;1.23;;;0.70;;
12476;SDS011;6303;51.504;6.300;2023-04-01T02:49:15;0.50;;;0.50;;
12476;SDS011;6303;51.504;6.300;2023-04-01T02:51:42;0.55;;;0.50;;
12476;SDS011;6303;51.504;6.300;2023-04-01T02:54:09;0.32;;;0.32;;
12476;SDS011;6303;51.504;6.300;2023-04-01T02:56:38;0.50;;;0.50;;
12476;SDS011;6303;51.504;6.300;2023-04-01T02:59:05;0.50;;;0.50;;
12476;SDS011;6303;51.504;6.300;2023-04-01T03:01:32;0.77;;;0.50;;
12476;SDS011;6303;51.504;6.300;2023-04-01T03:03:59;0.30;;;0.30;;
12476;SDS011;6303;51.504;6.300;2023-04-01T03:06:26;0.35;;;0.35;;
12476;SDS011;6303;51.504;6.300;2023-04-01T03:08:53;0.40;;;0.40;;
12476;SDS011;6303;51.504;6.300;2023-04-01T03:11:20;1.35;;;0.38;;
12476;SDS011;6303;51.504;6.300;2023-04-01T03:13:49;0.43;;;0.43;;
12476;SDS011;6303;51.504;6.300;2023-04-01T03:16:16;0.50;;;0.50;;
12476;SDS011;6303;51.504;6.300;2023-04-01T03:18:43;0.40;;;0.40;;
12476;SDS011;6303;51.504;6.300;2023-04-01T03:21:14;0.50;;;0.50;;
12476;SDS011;6303;51.504;6.300;2023-04-01T03:23:42;1.83;;;0.60;;
12476;SDS011;6303;51.504;6.300;2023-04-01T03:26:09;0.68;;;0.50;;
12476;SDS011;6303;51.504;6.300;2023-04-01T03:28:36;0.38;;;0.38;;
12476;SDS011;6303;51.504;6.300;2023-04-01T03:31:05;0.57;;;0.45;;
12476;SDS011;6303;51.504;6.300;2023-04-01T03:33:39;0.55;;;0.50;;
12476;SDS011;6303;51.504;6.300;2023-04-01T03:36:07;1.05;;;0.50;;
12476;SDS011;6303;51.504;6.300;2023-04-01T03:38:36;0.55;;;0.50;;
12476;SDS011;6303;51.504;6.300;2023-04-01T03:41:04;0.52;;;0.50;;
12476;SDS011;6303;51.504;6.300;2023-04-01T03:43:32;0.40;;;0.40;;
12476;SDS011;6303;51.504;6.300;2023-04-01T03:45:59;0.30;;;0.30;;
12476;SDS011;6303;51.504;6.300;2023-04-01T03:48:28;0.43;;;0.30;;
12476;SDS011;6303;51.504;6.300;2023-04-01T03:50:55;0.73;;;0.50;;
12476;SDS011;6303;51.504;6.300;2023-04-01T03:53:23;0.50;;;0.47;;
12476;SDS011;6303;51.504;6.300;2023-04-01T03:55:51;0.60;;;0.60;;
12476;SDS011;6303;51.504;6.300;2023-04-01T03:58:18;1.20;;;0.43;;
12476;SDS011;6303;51.504;6.300;2023-04-01T04:00:45;0.73;;;0.50;;
12476;SDS011;6303;51.504;6.300;2023-04-01T04:03:13;0.45;;;0.40;;
12476;SDS011;6303;51.504;6.300;2023-04-01T04:05:47;0.57;;;0.57;;
12476;SDS011;6303;51.504;6.300;2023-04-01T04:08:16;0.40;;;0.40;;
12476;SDS011;6303;51.504;6.300;2023-04-01T04:10:44;0.50;;;0.50;;
12476;SDS011;6303;51.504;6.300;2023-04-01T04:13:11;0.40;;;0.40;;
12476;SDS011;6303;51.504;6.300;2023-04-01T04:15:44;0.40;;;0.40;;
12476;SDS011;6303;51.504;6.300;2023-04-01T04:18:11;0.40;;;0.40;;
12476;SDS011;6303;51.504;6.300;2023-04-01T04:20:43;0.52;;;0.52;;
12476;SDS011;6303;51.504;6.300;2023-04-01T04:23:14;0.50;;;0.50;;
12476;SDS011;6303;51.504;6.300;2023-04-01T04:25:41;0.40;;;0.40;;
12476;SDS011;6303;51.504;6.300;2023-04-01T04:28:08;0.50;;;0.50;;
12476;SDS011;6303;51.504;6.300;2023-04-01T04:30:35;0.63;;;0.52;;
12476;SDS011;6303;51.504;6.300;2023-04-01T04:33:03;0.50;;;0.50;;
12476;SDS011;6303;51.504;6.300;2023-04-01T04:35:30;0.43;;;0.43;;
12476;SDS011;6303;51.504;6.300;2023-04-01T04:37:57;0.60;;;0.60;;
12476;SDS011;6303;51.504;6.300;2023-04-01T04:40:25;0.47;;;0.47;;
12476;SDS011;6303;51.504;6.300;2023-04-01T04:42:52;0.40;;;0.40;;
12476;SDS011;6303;51.504;6.300;2023-04-01T04:45:20;0.50;;;0.50;;
12476;SDS011;6303;51.504;6.300;2023-04-01T04:47:53;0.60;;;0.40;;
12476;SDS011;6303;51.504;6.300;2023-04-01T04:50:20;0.60;;;0.50;;
12476;SDS011;6303;51.504;6.300;2023-04-01T04:52:47;0.50;;;0.50;;
12476;SDS011;6303;51.504;6.300;2023-04-01T04:55:15;0.57;;;0.57;;
12476;SDS011;6303;51.504;6.300;2023-04-01T04:57:47;0.40;;;0.40;;
12476;SDS011;6303;51.504;6.300;2023-04-01T05:00:15;0.40;;;0.40;;
12476;SDS011;6303;51.504;6.300;2023-04-01T05:02:52;0.40;;;0.40;;
12476;SDS011;6303;51.504;6.300;2023-04-01T05:05:19;0.43;;;0.43;;
12476;SDS011;6303;51.504;6.300;2023-04-01T05:07:46;0.45;;;0.45;;
12476;SDS011;6303;51.504;6.300;2023-04-01T05:10:14;0.60;;;0.60;;
12476;SDS011;6303;51.504;6.300;2023-04-01T05:12:41;0.40;;;0.40;;
12476;SDS011;6303;51.504;6.300;2023-04-01T05:15:11;0.40;;;0.40;;
12476;SDS011;6303;51.504;6.300;2023-04-01T05:17:41;1.58;;;0.50;;
12476;SDS011;6303;51.504;6.300;2023-04-01T05:20:09;0.50;;;0.50;;
12476;SDS011;6303;51.504;6.300;2023-04-01T05:22:38;0.50;;;0.50;;
12476;SDS011;6303;51.504;6.300;2023-04-01T05:25:05;0.40;;;0.40;;
12476;SDS011;6303;51.504;6.300;2023-04-01T05:27:33;0.50;;;0.50;;
12476;SDS011;6303;51.504;6.300;2023-04-01T05:30:00;0.60;;;0.60;;
12476;SDS011;6303;51.504;6.300;2023-04-01T05:32:55;0.38;;;0.38;;
12476;SDS011;6303;51.504;6.300;2023-04-01T05:35:22;0.52;;;0.52;;
12476;SDS011;6303;51.504;6.300;2023-04-01T05:37:50;0.45;;;0.45;;
12476;SDS011;6303;51.504;6.300;2023-04-01T05:40:17;0.50;;;0.50;;
12476;SDS011;6303;51.504;6.300;2023-04-01T05:42:44;0.50;;;0.50;;
12476;SDS011;6303;51.504;6.300;2023-04-01T05:45:11;0.40;;;0.40;;
12476;SDS011;6303;51.504;6.300;2023-04-01T05:48:00;0.47;;;0.47;;
12476;SDS011;6303;51.504;6.300;2023-04-01T05:50:34;0.50;;;0.50;;
12476;SDS011;6303;51.504;6.300;2023-04-01T05:53:02;0.60;;;0.60;;
12476;SDS011;6303;51.504;6.300;2023-04-01T05:55:29;0.65;;;0.65;;
12476;SDS011;6303;51.504;6.300;2023-04-01T05:57:56;0.50;;;0.50;;
12476;SDS011;6303;51.504;6.300;2023-04-01T06:00:26;0.55;;;0.55;;
12476;SDS011;6303;51.504;6.300;2023-04-01T06:02:57;0.50;;;0.50;;
12476;SDS011;6303;51.504;6.300;2023-04-01T06:05:27;1.13;;;0.70;;
12476;SDS011;6303;51.504;6.300;2023-04-01T06:07:55;0.60;;;0.60;;
12476;SDS011;6303;51.504;6.300;2023-04-01T06:10:28;0.40;;;0.40;;
12476;SDS011;6303;51.504;6.300;2023-04-01T06:13:06;0.60;;;0.60;;
12476;SDS011;6303;51.504;6.300;2023-04-01T06:15:39;0.50;;;0.50;;
12476;SDS011;6303;51.504;6.300;2023-04-01T06:21:17;0.60;;;0.60;;
12476;SDS011;6303;51.504;6.300;2023-04-01T06:24:06;0.50;;;0.50;;
12476;SDS011;6303;51.504;6.300;2023-04-01T06:26:44;0.50;;;0.50;;
12476;SDS011;6303;51.504;6.300;2023-04-01T06:32:17;0.50;;;0.50;;
12476;SDS011;6303;51.504;6.300;2023-04-01T06:38:00;0.50;;;0.50;;
12476;SDS011;6303;51.504;6.300;2023-04-01T06:43:41;0.60;;;0.60;;
12476;SDS011;6303;51.504;6.300;2023-04-01T06:46:40;0.50;;;0.50;;
12476;SDS011;6303;51.504;6.300;2023-04-01T06:49:44;0.60;;;0.60;;
12476;SDS011;6303;51.504;6.300;2023-04-01T06:52:41;0.50;;;0.50;;
12476;SDS011;6303;51.504;6.300;2023-04-01T06:55:36;0.50;;;0.50;;
12476;SDS011;6303;51.504;6.300;2023-04-01T06:58:31;0.60;;;0.60;;
12476;SDS011;6303;51.504;6.300;2023-04-01T07:01:03;0.60;;;0.60;;
12476;SDS011;6303;51.504;6.300;2023-04-01T07:03:34;0.70;;;0.70;;
12476;SDS011;6303;51.504;6.300;2023-04-01T07:06:06;0.50;;;0.50;;
12476;SDS011;6303;51.504;6.300;2023-04-01T07:08:45;0.57;;;0.57;;
12476;SDS011;6303;51.504;6.300;2023-04-01T07:11:22;0.40;;;0.40;;
12476;SDS011;6303;51.504;6.300;2023-04-01T07:14:13;0.55;;;0.55;;
12476;SDS011;6303;51.504;6.300;2023-04-01T07:16:47;0.60;;;0.60;;
12476;SDS011;6303;51.504;6.300;2023-04-01T07:19:20;0.60;;;0.60;;
12476;SDS011;6303;51.504;6.300;2023-04-01T07:22:03;0.60;;;0.60;;
12476;SDS011;6303;51.504;6.300;2023-04-01T07:24:52;0.60;;;0.60;;
12476;SDS011;6303;51.504;6.300;2023-04-01T07:27:24;0.60;;;0.60;;
12476;SDS011;6303;51.504;6.300;2023-04-01T07:29:52;0.45;;;0.45;;
12476;SDS011;6303;51.504;6.300;2023-04-01T07:32:23;0.60;;;0.60;;
12476;SDS011;6303;51.504;6.300;2023-04-01T07:35:02;0.50;;;0.50;;
12476;SDS011;6303;51.504;6.300;2023-04-01T07:37:38;0.55;;;0.55;;
12476;SDS011;6303;51.504;6.300;2023-04-01T07:40:15;0.70;;;0.70;;
12476;SDS011;6303;51.504;6.300;2023-04-01T07:42:53;1.20;;;0.70;;
12476;SDS011;6303;51.504;6.300;2023-04-01T07:45:38;0.52;;;0.52;;
12476;SDS011;6303;51.504;6.300;2023-04-01T07:48:17;0.70;;;0.70;;
12476;SDS011;6303;51.504;6.300;2023-04-01T07:50:53;1.10;;;0.60;;
12476;SDS011;6303;51.504;6.300;2023-04-01T07:53:28;0.63;;;0.63;;
12476;SDS011;6303;51.504;6.300;2023-04-01T07:56:05;0.70;;;0.70;;
12476;SDS011;6303;51.504;6.300;2023-04-01T07:58:41;0.50;;;0.50;;
12476;SDS011;6303;51.504;6.300;2023-04-01T08:01:37;0.70;;;0.70;;
12476;SDS011;6303;51.504;6.300;2023-04-01T08:04:23;0.60;;;0.60;;
12476;SDS011;6303;51.504;6.300;2023-04-01T08:07:00;0.60;;;0.60;;
12476;SDS011;6303;51.504;6.300;2023-04-01T08:09:37;0.65;;;0.65;;
12476;SDS011;6303;51.504;6.300;2023-04-01T08:12:32;0.50;;;0.50;;
12476;SDS011;6303;51.504;6.300;2023-04-01T08:15:51;0.60;;;0.60;;
12476;SDS011;6303;51.504;6.300;2023-04-01T08:18:37;0.68;;;0.68;;
12476;SDS011;6303;51.504;6.300;2023-04-01T08:21:14;0.60;;;0.60;;
12476;SDS011;6303;51.504;6.300;2023-04-01T08:23:51;0.60;;;0.60;;
12476;SDS011;6303;51.504;6.300;2023-04-01T08:26:23;0.50;;;0.50;;
12476;SDS011;6303;51.504;6.300;2023-04-01T08:28:58;0.50;;;0.50;;
12476;SDS011;6303;51.504;6.300;2023-04-01T08:31:31;0.47;;;0.47;;
12476;SDS011;6303;51.504;6.300;2023-04-01T08:34:02;0.60;;;0.60;;
12476;SDS011;6303;51.504;6.300;2023-04-01T08:36:32;0.73;;;0.70;;
12476;SDS011;6303;51.504;6.300;2023-04-01T08:39:13;0.60;;;0.60;;
12476;SDS011;6303;51.504;6.300;2023-04-01T08:41:59;0.68;;;0.68;;
12476;SDS011;6303;51.504;6.300;2023-04-01T08:44:46;0.80;;;0.80;;
12476;SDS011;6303;51.504;6.300;2023-04-01T08:47:36;1.05;;;0.95;;
12476;SDS011;6303;51.504;6.300;2023-04-01T08:50:23;0.75;;;0.75;;
12476;SDS011;6303;51.504;6.300;2023-04-01T08:53:21;0.60;;;0.60;;
12476;SDS011;6303;51.504;6.300;2023-04-01T08:56:10;0.80;;;0.80;;
12476;SDS011;6303;51.504;6.300;2023-04-01T08:58:53;0.65;;;0.65;;
12476;SDS011;6303;51.504;6.300;2023-04-01T09:01:46;0.60;;;0.60;;
12476;SDS011;6303;51.504;6.300;2023-04-01T09:08:18;5.35;;;0.98;;
12476;SDS011;6303;51.504;6.300;2023-04-01T09:11:00;0.70;;;0.70;;
12476;SDS011;6303;51.504;6.300;2023-04-01T09:14:29;1.35;;;0.90;;
12476;SDS011;6303;51.504;6.300;2023-04-01T09:17:26;0.90;;;0.90;;
12476;SDS011;6303;51.504;6.300;2023-04-01T09:20:09;1.73;;;1.05;;
12476;SDS011;6303;51.504;6.300;2023-04-01T09:22:56;2.20;;;0.80;;
12476;SDS011;6303;51.504;6.300;2023-04-01T09:25:47;2.15;;;1.00;;
12476;SDS011;6303;51.504;6.300;2023-04-01T09:28:25;1.17;;;0.90;;
12476;SDS011;6303;51.504;6.300;2023-04-01T09:37:20;1.27;;;1.00;;
12476;SDS011;6303;51.504;6.300;2023-04-01T09:40:09;2.45;;;0.90;;
12476;SDS011;6303;51.504;6.300;2023-04-01T09:43:00;1.88;;;0.90;;
12476;SDS011;6303;51.504;6.300;2023-04-01T09:45:42;1.98;;;1.05;;
12476;SDS011;6303;51.504;6.300;2023-04-01T09:48:19;2.20;;;1.00;;
12476;SDS011;6303;51.504;6.300;2023-04-01T09:50:59;1.95;;;1.20;;
12476;SDS011;6303;51.504;6.300;2023-04-01T09:53:36;4.72;;;1.08;;
12476;SDS011;6303;51.504;6.300;2023-04-01T10:03:09;3.80;;;2.85;;
12476;SDS011;6303;51.504;6.300;2023-04-01T10:06:02;4.95;;;3.00;;
12476;SDS011;6303;51.504;6.300;2023-04-01T10:11:57;5.68;;;2.92;;
12476;SDS011;6303;51.504;6.300;2023-04-01T10:15:10;4.22;;;2.13;;
12476;SDS011;6303;51.504;6.300;2023-04-01T10:21:16;4.40;;;1.98;;
12476;SDS011;6303;51.504;6.300;2023-04-01T10:30:05;2.78;;;1.80;;
12476;SDS011;6303;51.504;6.300;2023-04-01T10:39:03;2.65;;;1.65;;
12476;SDS011;6303;51.504;6.300;2023-04-01T10:42:05;2.97;;;1.55;;
12476;SDS011;6303;51.504;6.300;2023-04-01T10:48:24;3.97;;;1.60;;
12476;SDS011;6303;51.504;6.300;2023-04-01T10:51:17;2.72;;;1.65;;
12476;SDS011;6303;51.504;6.300;2023-04-01T10:53:59;3.28;;;1.60;;
12476;SDS011;6303;51.504;6.300;2023-04-01T10:57:07;4.20;;;1.73;;
12476;SDS011;6303;51.504;6.300;2023-04-01T11:04:05;1.77;;;1.50;;
12476;SDS011;6303;51.504;6.300;2023-04-01T11:13:54;2.60;;;1.50;;
12476;SDS011;6303;51.504;6.300;2023-04-01T11:16:47;2.88;;;1.48;;
12476;SDS011;6303;51.504;6.300;2023-04-01T11:19:51;2.45;;;1.30;;
12476;SDS011;6303;51.504;6.300;2023-04-01T11:22:44;1.60;;;1.20;;
12476;SDS011;6303;51.504;6.300;2023-04-01T11:25:36;3.80;;;1.42;;
12476;SDS011;6303;51.504;6.300;2023-04-01T11:28:50;2.25;;;1.30;;
12476;SDS011;6303;51.504;6.300;2023-04-01T11:31:35;1.65;;;1.40;;
12476;SDS011;6303;51.504;6.300;2023-04-01T11:34:14;2.47;;;1.38;;
12476;SDS011;6303;51.504;6.300;2023-04-01T11:36:54;1.30;;;1.20;;
12476;SDS011;6303;51.504;6.300;2023-04-01T11:39:32;1.20;;;1.10;;
12476;SDS011;6303;51.504;6.300;2023-04-01T11:42:43;1.13;;;1.02;;
12476;SDS011;6303;51.504;6.300;2023-04-01T11:45:39;2.03;;;1.13;;
12476;SDS011;6303;51.504;6.300;2023-04-01T11:48:23;1.42;;;1.10;;
12476;SDS011;6303;51.504;6.300;2023-04-01T11:53:59;1.40;;;1.30;;
12476;SDS011;6303;51.504;6.300;2023-04-01T11:56:34;4.05;;;1.23;;
12476;SDS011;6303;51.504;6.300;2023-04-01T12:02:08;4.43;;;1.70;;
12476;SDS011;6303;51.504;6.300;2023-04-01T12:04:52;2.97;;;1.20;;
12476;SDS011;6303;51.504;6.300;2023-04-01T12:07:33;2.67;;;1.23;;
12476;SDS011;6303;51.504;6.300;2023-04-01T12:10:19;2.60;;;1.23;;
12476;SDS011;6303;51.504;6.300;2023-04-01T12:12:51;6.15;;;1.40;;
12476;SDS011;6303;51.504;6.300;2023-04-01T12:15:27;1.65;;;1.20;;
12476;SDS011;6303;51.504;6.300;2023-04-01T12:18:04;1.90;;;1.17;;
12476;SDS011;6303;51.504;6.300;2023-04-01T12:20:45;1.42;;;1.10;;
12476;SDS011;6303;51.504;6.300;2023-04-01T12:29:21;1.88;;;1.20;;
12476;SDS011;6303;51.504;6.300;2023-04-01T12:32:14;2.25;;;1.13;;
12476;SDS011;6303;51.504;6.300;2023-04-01T12:34:58;1.70;;;1.15;;
12476;SDS011;6303;51.504;6.300;2023-04-01T12:37:39;1.63;;;1.02;;
12476;SDS011;6303;51.504;6.300;2023-04-01T12:40:19;1.60;;;1.23;;
12476;SDS011;6303;51.504;6.300;2023-04-01T12:42:59;1.42;;;1.20;;
12476;SDS011;6303;51.504;6.300;2023-04-01T12:45:49;3.13;;;1.20;;
12476;SDS011;6303;51.504;6.300;2023-04-01T12:54:30;1.92;;;1.45;;
12476;SDS011;6303;51.504;6.300;2023-04-01T12:57:20;2.38;;;1.23;;
12476;SDS011;6303;51.504;6.300;2023-04-01T13:00:12;1.30;;;1.20;;
12476;SDS011;6303;51.504;6.300;2023-04-01T13:02:53;1.52;;;1.08;;
12476;SDS011;6303;51.504;6.300;2023-04-01T13:05:47;3.75;;;1.10;;
12476;SDS011;6303;51.504;6.300;2023-04-01T13:08:43;1.40;;;1.30;;
12476;SDS011;6303;51.504;6.300;2023-04-01T13:11:18;2.13;;;1.05;;
12476;SDS011;6303;51.504;6.300;2023-04-01T13:14:01;3.20;;;1.17;;
12476;SDS011;6303;51.504;6.300;2023-04-01T13:17:00;1.27;;;1.17;;
12476;SDS011;6303;51.504;6.300;2023-04-01T13:19:36;2.30;;;1.10;;
12476;SDS011;6303;51.504;6.300;2023-04-01T13:22:11;1.50;;;1.20;;
12476;SDS011;6303;51.504;6.300;2023-04-01T13:24:48;9.25;;;2.00;;
12476;SDS011;6303;51.504;6.300;2023-04-01T13:27:24;2.25;;;1.45;;
12476;SDS011;6303;51.504;6.300;2023-04-01T13:30:02;1.35;;;1.25;;
12476;SDS011;6303;51.504;6.300;2023-04-01T13:32:46;4.50;;;1.50;;
12476;SDS011;6303;51.504;6.300;2023-04-01T13:35:20;3.13;;;1.70;;
12476;SDS011;6303;51.504;6.300;2023-04-01T13:38:00;1.98;;;1.40;;
12476;SDS011;6303;51.504;6.300;2023-04-01T13:40:40;4.25;;;1.50;;
12476;SDS011;6303;51.504;6.300;2023-04-01T13:43:16;3.00;;;1.63;;
12476;SDS011;6303;51.504;6.300;2023-04-01T13:48:55;1.40;;;1.27;;
12476;SDS011;6303;51.504;6.300;2023-04-01T13:51:45;2.22;;;1.42;;
12476;SDS011;6303;51.504;6.300;2023-04-01T14:01:06;2.00;;;1.35;;
12476;SDS011;6303;51.504;6.300;2023-04-01T14:03:44;2.60;;;1.20;;
12476;SDS011;6303;51.504;6.300;2023-04-01T14:06:34;4.05;;;1.50;;
12476;SDS011;6303;51.504;6.300;2023-04-01T14:09:10;1.95;;;1.27;;
12476;SDS011;6303;51.504;6.300;2023-04-01T14:11:47;3.38;;;1.40;;
12476;SDS011;6303;51.504;6.300;2023-04-01T14:14:21;1.33;;;1.20;;
12476;SDS011;6303;51.504;6.300;2023-04-01T14:17:02;3.65;;;1.40;;
12476;SDS011;6303;51.504;6.300;2023-04-01T14:19:44;2.95;;;1.42;;
12476;SDS011;6303;51.504;6.300;2023-04-01T14:22:28;3.00;;;1.40;;
12476;SDS011;6303;51.504;6.300;2023-04-01T14:25:12;4.95;;;1.40;;
12476;SDS011;6303;51.504;6.300;2023-04-01T14:28:00;3.88;;;1.35;;
12476;SDS011;6303;51.504;6.300;2023-04-01T14:30:43;1.77;;;1.10;;
12476;SDS011;6303;51.504;6.300;2023-04-01T14:33:26;1.23;;;1.20;;
12476;SDS011;6303;51.504;6.300;2023-04-01T14:36:18;1.80;;;1.20;;
12476;SDS011;6303;51.504;6.300;2023-04-01T14:39:12;2.08;;;1.30;;
12476;SDS011;6303;51.504;6.300;2023-04-01T14:41:48;1.42;;;1.33;;
12476;SDS011;6303;51.504;6.300;2023-04-01T14:44:35;1.58;;;1.10;;
12476;SDS011;6303;51.504;6.300;2023-04-01T14:47:18;2.45;;;1.40;;
12476;SDS011;6303;51.504;6.300;2023-04-01T14:50:05;1.20;;;1.10;;
12476;SDS011;6303;51.504;6.300;2023-04-01T14:52:39;2.30;;;1.38;;
12476;SDS011;6303;51.504;6.300;2023-04-01T14:55:18;1.88;;;1.33;;
12476;SDS011;6303;51.504;6.300;2023-04-01T14:57:58;2.88;;;1.25;;
12476;SDS011;6303;51.504;6.300;2023-04-01T15:00:26;1.77;;;1.30;;
12476;SDS011;6303;51.504;6.300;2023-04-01T15:03:01;1.20;;;1.08;;
12476;SDS011;6303;51.504;6.300;2023-04-01T15:05:38;2.10;;;1.35;;
12476;SDS011;6303;51.504;6.300;2023-04-01T15:08:22;2.17;;;1.40;;
12476;SDS011;6303;51.504;6.300;2023-04-01T15:11:01;1.30;;;1.20;;
12476;SDS011;6303;51.504;6.300;2023-04-01T15:17:05;1.45;;;1.20;;
12476;SDS011;6303;51.504;6.300;2023-04-01T15:19:52;1.83;;;1.30;;
12476;SDS011;6303;51.504;6.300;2023-04-01T15:22:33;3.40;;;1.35;;
12476;SDS011;6303;51.504;6.300;2023-04-01T15:25:17;1.30;;;1.20;;
12476;SDS011;6303;51.504;6.300;2023-04-01T15:27:54;2.03;;;1.40;;
12476;SDS011;6303;51.504;6.300;2023-04-01T15:30:30;1.40;;;1.30;;
12476;SDS011;6303;51.504;6.300;2023-04-01T15:33:07;1.20;;;1.20;;
12476;SDS011;6303;51.504;6.300;2023-04-01T15:35:46;1.50;;;1.05;;
12476;SDS011;6303;51.504;6.300;2023-04-01T15:38:20;1.20;;;1.10;;
12476;SDS011;6303;51.504;6.300;2023-04-01T15:40:56;1.63;;;1.20;;
12476;SDS011;6303;51.504;6.300;2023-04-01T15:43:32;1.30;;;1.20;;
12476;SDS011;6303;51.504;6.300;2023-04-01T15:46:15;1.20;;;1.10;;
12476;SDS011;6303;51.504;6.300;2023-04-01T15:48:52;5.40;;;1.58;;
12476;SDS011;6303;51.504;6.300;2023-04-01T15:51:37;1.83;;;1.30;;
12476;SDS011;6303;51.504;6.300;2023-04-01T15:54:20;7.07;;;1.27;;
12476;SDS011;6303;51.504;6.300;2023-04-01T15:57:18;2.10;;;1.20;;
12476;SDS011;6303;51.504;6.300;2023-04-01T15:59:54;1.08;;;1.08;;
12476;SDS011;6303;51.504;6.300;2023-04-01T16:02:44;4.10;;;1.58;;
12476;SDS011;6303;51.504;6.300;2023-04-01T16:05:25;3.53;;;1.40;;
12476;SDS011;6303;51.504;6.300;2023-04-01T16:10:59;8.57;;;2.83;;
12476;SDS011;6303;51.504;6.300;2023-04-01T16:13:48;7.57;;;3.10;;
12476;SDS011;6303;51.504;6.300;2023-04-01T16:16:28;18.05;;;3.70;;
12476;SDS011;6303;51.504;6.300;2023-04-01T16:19:08;13.48;;;4.03;;
12476;SDS011;6303;51.504;6.300;2023-04-01T16:21:52;7.72;;;3.28;;
12476;SDS011;6303;51.504;6.300;2023-04-01T16:24:24;10.80;;;3.28;;
12476;SDS011;6303;51.504;6.300;2023-04-01T16:27:00;8.50;;;3.30;;
12476;SDS011;6303;51.504;6.300;2023-04-01T16:29:35;5.68;;;2.97;;
12476;SDS011;6303;51.504;6.300;2023-04-01T16:32:15;6.15;;;3.25;;
12476;SDS011;6303;51.504;6.300;2023-04-01T16:34:54;6.25;;;3.35;;
12476;SDS011;6303;51.504;6.300;2023-04-01T16:37:32;5.38;;;2.70;;
12476;SDS011;6303;51.504;6.300;2023-04-01T16:40:09;8.07;;;2.75;;
12476;SDS011;6303;51.504;6.300;2023-04-01T16:42:44;5.40;;;2.58;;
12476;SDS011;6303;51.504;6.300;2023-04-01T16:45:23;4.90;;;2.75;;
12476;SDS011;6303;51.504;6.300;2023-04-01T16:47:58;3.95;;;3.20;;
12476;SDS011;6303;51.504;6.300;2023-04-01T16:50:39;4.60;;;3.03;;
12476;SDS011;6303;51.504;6.300;2023-04-01T16:53:14;3.40;;;2.63;;
12476;SDS011;6303;51.504;6.300;2023-04-01T16:55:47;4.28;;;2.90;;
12476;SDS011;6303;51.504;6.300;2023-04-01T16:58:18;3.95;;;3.10;;
12476;SDS011;6303;51.504;6.300;2023-04-01T17:00:53;5.25;;;3.33;;
12476;SDS011;6303;51.504;6.300;2023-04-01T17:03:27;4.18;;;3.45;;
12476;SDS011;6303;51.504;6.300;2023-04-01T17:06:07;3.80;;;3.50;;
12476;SDS011;6303;51.504;6.300;2023-04-01T17:08:50;3.38;;;3.08;;
12476;SDS011;6303;51.504;6.300;2023-04-01T17:11:27;3.78;;;3.47;;
12476;SDS011;6303;51.504;6.300;2023-04-01T17:14:05;4.30;;;3.58;;
12476;SDS011;6303;51.504;6.300;2023-04-01T17:16:57;5.85;;;2.97;;
12476;SDS011;6303;51.504;6.300;2023-04-01T17:19:41;5.30;;;2.80;;
12476;SDS011;6303;51.504;6.300;2023-04-01T17:22:18;4.07;;;2.92;;
12476;SDS011;6303;51.504;6.300;2023-04-01T17:24:58;5.25;;;2.75;;
12476;SDS011;6303;51.504;6.300;2023-04-01T17:27:38;5.65;;;2.45;;
12476;SDS011;6303;51.504;6.300;2023-04-01T17:30:13;3.90;;;2.58;;
12476;SDS011;6303;51.504;6.300;2023-04-01T17:32:56;4.53;;;2.67;;
12476;SDS011;6303;51.504;6.300;2023-04-01T17:35:43;4.55;;;2.55;;
12476;SDS011;6303;51.504;6.300;2023-04-01T17:38:22;2.92;;;2.33;;